X  Chiuso Dati meteorologici dell'aviazione (METAR)     LIBN Lecce Galatina Air Base
Temperatura
17°C Temperatura
1°C Punto di rugiada
34% Umidità



Vento
16 KM/H
10 MPH
4 M/S
9 KTS



350°
Nord
Condizioni attuali

Chiaro Chiaro
Pressione 1020.92 (hPa) - 30.15 (inHg)
Visibilità 6.2 (miglio) - 10 (km)
Aeroporto
Aeroporto-code LIBN

Posizione Lecce Galatina Air Base 16 (km)

Metar:
LIBN 081455Z 35009KT CAVOK 17/01 Q1021 RMK SKC VIS MIN 9999 WIND THR14 35010KT WIND THR32 35010KT BLU

Ore: 08-04-2020 16:55 CEST